createdAt,value
2022-09-02T00:01:19.164Z,82.22
2022-09-02T00:03:47.258Z,82.27
2022-09-02T00:06:15.381Z,82.18
2022-09-02T00:08:42.949Z,82.19
2022-09-02T00:11:13.385Z,82.06
2022-09-02T00:13:40.788Z,81.92
2022-09-02T00:16:10.349Z,82.05
2022-09-02T00:18:37.806Z,82.00
2022-09-02T00:21:05.363Z,81.89
2022-09-02T00:23:32.956Z,81.64
2022-09-02T00:26:00.446Z,81.82
2022-09-02T00:28:27.885Z,81.58
2022-09-02T00:30:55.615Z,81.71
2022-09-02T00:33:23.090Z,81.91
2022-09-02T00:35:50.568Z,81.96
2022-09-02T00:38:18.169Z,81.95
2022-09-02T00:40:47.915Z,81.91
2022-09-02T00:43:24.323Z,81.91
2022-09-02T00:45:53.233Z,81.68
2022-09-02T00:48:20.772Z,81.82
2022-09-02T00:50:48.508Z,81.67
2022-09-02T00:53:15.908Z,81.53
2022-09-02T00:55:46.640Z,81.58
2022-09-02T00:58:20.325Z,81.34
2022-09-02T01:00:48.741Z,81.10
2022-09-02T01:03:19.682Z,81.10
2022-09-02T01:05:49.901Z,81.15
2022-09-02T01:08:20.368Z,81.38
2022-09-02T01:10:48.079Z,81.22
2022-09-02T01:13:18.777Z,81.14
2022-09-02T01:15:49.325Z,81.37
2022-09-02T01:18:20.398Z,81.20
2022-09-02T01:20:48.247Z,81.32
2022-09-02T01:23:16.867Z,81.66
2022-09-02T01:25:45.942Z,81.77
2022-09-02T01:28:15.559Z,81.88
2022-09-02T01:30:46.631Z,81.68
2022-09-02T01:33:14.567Z,81.47
2022-09-02T01:35:43.354Z,80.87
2022-09-02T01:38:11.087Z,81.16
2022-09-02T01:40:39.544Z,81.44
2022-09-02T01:43:10.376Z,81.07
2022-09-02T01:45:39.620Z,80.03
2022-09-02T01:48:08.564Z,80.16
2022-09-02T01:50:40.611Z,79.74
2022-09-02T01:53:07.737Z,80.18
2022-09-02T01:55:35.413Z,79.86
2022-09-02T01:58:03.856Z,79.94
2022-09-02T02:00:31.800Z,79.94
2022-09-02T02:02:59.340Z,79.99
2022-09-02T02:05:26.865Z,80.22
2022-09-02T02:07:54.895Z,80.58
2022-09-02T02:10:22.941Z,80.63
2022-09-02T02:12:51.238Z,80.68
2022-09-02T02:15:21.890Z,80.79
2022-09-02T02:17:50.047Z,80.97
2022-09-02T02:20:19.409Z,81.03
2022-09-02T02:22:47.863Z,81.07
2022-09-02T02:25:16.640Z,81.19
2022-09-02T02:27:45.174Z,80.83
2022-09-02T02:30:16.130Z,80.60
2022-09-02T02:32:45.497Z,80.45
2022-09-02T02:35:15.466Z,80.24
2022-09-02T02:37:43.088Z,80.59
2022-09-02T02:40:11.592Z,80.49
2022-09-02T02:42:39.322Z,80.33
2022-09-02T02:45:09.289Z,80.27
2022-09-02T02:47:42.635Z,80.31
2022-09-02T02:50:11.976Z,80.44
2022-09-02T02:52:40.677Z,80.15
2022-09-02T02:55:09.731Z,79.91
2022-09-02T02:57:38.716Z,79.91
2022-09-02T03:00:13.413Z,79.64
2022-09-02T03:02:41.938Z,79.45
2022-09-02T03:05:10.987Z,79.26
2022-09-02T03:07:39.433Z,79.24
2022-09-02T03:10:09.264Z,79.34
2022-09-02T03:12:39.121Z,79.40
2022-09-02T03:15:09.134Z,79.18
2022-09-02T03:17:37.386Z,78.85
2022-09-02T03:20:07.251Z,78.85
2022-09-02T03:22:38.507Z,79.20
2022-09-02T03:25:08.455Z,79.19
2022-09-02T03:27:40.090Z,79.36
2022-09-02T03:30:10.211Z,79.54
2022-09-02T03:32:37.880Z,79.64
2022-09-02T03:35:07.620Z,79.56
2022-09-02T03:37:36.244Z,79.66
2022-09-02T03:40:06.523Z,79.79
2022-09-02T03:42:34.950Z,79.97
2022-09-02T03:45:03.070Z,80.31
2022-09-02T03:47:30.514Z,80.07
2022-09-02T03:49:58.010Z,80.08
2022-09-02T03:52:25.777Z,80.27
2022-09-02T03:54:53.198Z,80.14
2022-09-02T03:57:22.543Z,80.20
2022-09-02T03:59:50.142Z,80.21
2022-09-02T04:02:17.933Z,80.21
2022-09-02T04:04:45.535Z,80.10
2022-09-02T04:07:12.919Z,80.23
2022-09-02T04:09:45.976Z,80.56
2022-09-02T04:12:10.213Z,80.41
2022-09-02T04:14:37.801Z,80.83
2022-09-02T04:17:05.869Z,80.50
2022-09-02T04:19:33.435Z,80.78
2022-09-02T04:22:00.852Z,80.69
2022-09-02T04:24:28.376Z,80.77
2022-09-02T04:26:58.566Z,80.94
2022-09-02T04:29:25.897Z,80.78
2022-09-02T04:31:54.431Z,81.07
2022-09-02T04:34:22.271Z,80.79
2022-09-02T04:36:49.940Z,80.95
2022-09-02T04:39:18.930Z,80.87
2022-09-02T04:41:46.502Z,80.90
2022-09-02T04:44:14.050Z,80.90
2022-09-02T04:46:44.910Z,80.67
2022-09-02T04:49:14.403Z,80.36
2022-09-02T04:51:42.675Z,80.60
2022-09-02T04:54:10.834Z,80.18
2022-09-02T04:56:39.126Z,80.44
2022-09-02T04:59:08.270Z,80.13
2022-09-02T05:01:37.388Z,80.36
2022-09-02T05:04:09.059Z,80.78
2022-09-02T05:06:43.893Z,81.06
2022-09-02T05:09:08.713Z,80.62
2022-09-02T05:11:37.327Z,80.79
2022-09-02T05:14:06.613Z,80.64
2022-09-02T05:16:39.383Z,80.54
2022-09-02T05:19:11.394Z,80.54
2022-09-02T05:21:44.250Z,80.56
2022-09-02T05:24:14.040Z,80.76
2022-09-02T05:26:44.008Z,80.88
2022-09-02T05:29:12.809Z,80.58
2022-09-02T05:31:41.317Z,80.87
2022-09-02T05:34:11.395Z,80.75
2022-09-02T05:36:38.865Z,80.69
2022-09-02T05:39:06.242Z,80.68
2022-09-02T05:41:35.253Z,80.97
2022-09-02T05:44:04.019Z,80.69
2022-09-02T05:46:32.852Z,80.87
2022-09-02T05:49:08.255Z,80.99
2022-09-02T05:51:45.203Z,81.21
2022-09-02T05:54:16.247Z,81.06
2022-09-02T05:56:45.217Z,81.00
2022-09-02T05:59:13.668Z,80.98
2022-09-02T06:01:41.683Z,80.86
2022-09-02T06:04:09.320Z,80.88
2022-09-02T06:06:39.579Z,80.93
2022-09-02T06:09:09.660Z,80.99
2022-09-02T06:11:39.435Z,81.37
2022-09-02T06:14:12.519Z,81.39
2022-09-02T06:16:41.846Z,81.11
2022-09-02T06:19:11.249Z,81.17
2022-09-02T06:21:39.615Z,81.31
2022-09-02T06:24:07.636Z,81.25
2022-09-02T06:26:36.665Z,81.52
2022-09-02T06:29:05.623Z,81.27
2022-09-02T06:31:35.009Z,81.58
2022-09-02T06:34:04.063Z,81.58
2022-09-02T06:36:32.134Z,81.50
2022-09-02T06:39:01.514Z,81.73
2022-09-02T06:41:33.065Z,82.13
2022-09-02T06:44:03.522Z,82.05
2022-09-02T06:46:35.822Z,81.96
2022-09-02T06:49:04.923Z,82.16
2022-09-02T06:51:38.178Z,82.65
2022-09-02T06:54:09.162Z,82.42
2022-09-02T06:56:38.483Z,82.49
2022-09-02T06:59:07.227Z,82.50
2022-09-02T07:01:46.551Z,82.72
2022-09-02T07:04:35.542Z,82.69
2022-09-02T07:07:05.122Z,82.69
2022-09-02T07:09:34.328Z,82.96
2022-09-02T07:12:05.348Z,83.26
2022-09-02T07:14:40.838Z,83.16
2022-09-02T07:17:10.503Z,83.47
2022-09-02T07:19:38.979Z,83.30
2022-09-02T07:22:06.838Z,83.34
2022-09-02T07:24:40.100Z,83.34
2022-09-02T07:27:08.004Z,83.63
2022-09-02T07:29:35.640Z,83.71
2022-09-02T07:32:03.737Z,83.96
2022-09-02T07:34:31.530Z,84.37
2022-09-02T07:37:04.087Z,84.13
2022-09-02T07:39:29.012Z,84.58
2022-09-02T07:41:56.420Z,84.49
2022-09-02T07:44:24.849Z,84.69
2022-09-02T07:46:52.747Z,84.56
2022-09-02T07:49:24.050Z,84.56
2022-09-02T07:51:51.460Z,84.68
2022-09-02T07:54:21.903Z,84.96
2022-09-02T07:56:49.565Z,84.79
2022-09-02T07:59:18.608Z,85.02
2022-09-02T08:01:48.386Z,84.86
2022-09-02T08:04:18.202Z,85.12
2022-09-02T08:06:46.344Z,84.98
2022-09-02T08:09:14.205Z,85.16
2022-09-02T08:11:44.559Z,85.13
2022-09-02T08:14:16.800Z,85.13
2022-09-02T08:16:44.771Z,85.06
2022-09-02T08:19:13.225Z,85.53
2022-09-02T08:21:40.517Z,85.22
2022-09-02T08:24:08.030Z,85.31
2022-09-02T08:26:38.605Z,85.22
2022-09-02T08:29:07.496Z,85.21
2022-09-02T08:31:36.948Z,85.19
2022-09-02T08:34:04.336Z,85.13
2022-09-02T08:36:31.649Z,85.19
2022-09-02T08:39:02.128Z,85.22
2022-09-02T08:41:36.006Z,85.21
2022-09-02T08:44:04.716Z,85.51
2022-09-02T08:46:35.463Z,85.23
2022-09-02T08:49:15.408Z,85.10
2022-09-02T08:51:53.230Z,85.16
2022-09-02T08:54:35.765Z,85.31
2022-09-02T08:57:03.291Z,85.23
2022-09-02T08:59:31.709Z,85.22
2022-09-02T09:02:27.440Z,85.12
2022-09-02T09:05:07.852Z,84.96
2022-09-02T09:08:01.843Z,84.84
2022-09-02T09:10:51.498Z,84.96
2022-09-02T09:13:46.887Z,84.84
2022-09-02T09:16:36.877Z,84.97
2022-09-02T09:19:29.163Z,84.79
2022-09-02T09:22:02.389Z,84.86
2022-09-02T09:24:44.261Z,85.14
2022-09-02T09:27:18.071Z,85.25
2022-09-02T09:29:46.020Z,85.22
2022-09-02T09:32:35.490Z,85.11
2022-09-02T09:35:09.494Z,85.00
2022-09-02T09:37:43.684Z,85.15
2022-09-02T09:40:26.606Z,85.17
2022-09-02T09:43:07.942Z,85.02
2022-09-02T09:45:37.738Z,84.87
2022-09-02T09:48:25.436Z,84.57
2022-09-02T09:50:59.560Z,84.63
2022-09-02T09:53:33.706Z,84.70
2022-09-02T09:56:07.442Z,84.60
2022-09-02T09:58:41.243Z,84.64
2022-09-02T10:01:32.185Z,84.89
2022-09-02T10:04:41.594Z,84.80
2022-09-02T10:06:51.840Z,84.66
2022-09-02T10:09:22.898Z,84.53
2022-09-02T10:12:05.730Z,84.43
2022-09-02T10:14:39.418Z,84.39
2022-09-02T10:17:42.101Z,84.16
2022-09-02T10:20:16.213Z,84.54
2022-09-02T10:23:07.821Z,84.63
2022-09-02T10:25:52.055Z,84.51
2022-09-02T10:28:38.205Z,84.61
2022-09-02T10:31:12.312Z,84.69
2022-09-02T10:34:06.325Z,83.88
2022-09-02T10:36:56.814Z,84.01
2022-09-02T10:39:30.881Z,84.22
2022-09-02T10:42:02.434Z,84.47
2022-09-02T10:44:42.390Z,84.47
2022-09-02T10:47:22.491Z,84.50
2022-09-02T10:50:04.413Z,84.52
2022-09-02T10:52:38.181Z,84.45
2022-09-02T10:55:15.014Z,84.39
2022-09-02T10:57:48.883Z,83.95
2022-09-02T11:00:18.981Z,83.83
2022-09-02T11:03:03.927Z,83.91
2022-09-02T11:05:56.592Z,83.92
2022-09-02T11:08:46.068Z,84.00
2022-09-02T11:11:24.635Z,83.86
2022-09-02T11:14:15.806Z,84.04
2022-09-02T11:16:52.349Z,83.95
2022-09-02T11:19:29.265Z,83.90
2022-09-02T11:22:17.546Z,84.18
2022-09-02T11:24:59.587Z,83.79
2022-09-02T11:27:42.490Z,83.96
2022-09-02T11:30:15.982Z,84.58
2022-09-02T11:32:59.226Z,84.31
2022-09-02T11:35:37.817Z,84.11
2022-09-02T11:38:27.440Z,84.26
2022-09-02T11:44:15.332Z,84.53
2022-09-02T11:46:46.484Z,84.62
2022-09-02T11:49:20.574Z,84.80
2022-09-02T11:52:03.601Z,84.75
2022-09-02T11:54:35.420Z,83.99
2022-09-02T11:57:04.092Z,83.24
2022-09-02T11:59:54.872Z,83.54
2022-09-02T12:02:41.707Z,83.72
2022-09-02T12:05:34.741Z,82.86
2022-09-02T12:08:06.348Z,83.35
2022-09-02T12:10:47.390Z,83.11
2022-09-02T12:13:43.339Z,83.05
2022-09-02T12:16:20.567Z,82.71
2022-09-02T12:18:57.931Z,82.84
2022-09-02T12:21:27.948Z,82.97
2022-09-02T12:23:59.265Z,83.09
2022-09-02T12:26:42.519Z,82.88
2022-09-02T12:29:24.154Z,82.94
2022-09-02T12:31:52.969Z,83.08
2022-09-02T12:34:28.749Z,83.20
2022-09-02T12:36:57.669Z,83.40
2022-09-02T12:39:28.853Z,83.23
2022-09-02T12:42:18.199Z,83.52
2022-09-02T12:44:52.882Z,83.53
2022-09-02T12:47:40.957Z,83.69
2022-09-02T12:50:21.415Z,83.32
2022-09-02T12:52:50.735Z,82.86
2022-09-02T12:55:29.812Z,82.86
2022-09-02T12:58:10.917Z,82.85
2022-09-02T13:00:45.856Z,82.75
2022-09-02T13:03:26.084Z,83.16
2022-09-02T13:05:58.280Z,83.36
2022-09-02T13:08:57.203Z,82.80
2022-09-02T13:11:34.287Z,83.20
2022-09-02T13:14:21.728Z,83.37
2022-09-02T13:17:08.981Z,83.27
2022-09-02T13:20:08.688Z,83.78
2022-09-02T13:22:52.057Z,83.67
2022-09-02T13:25:23.138Z,83.70
2022-09-02T13:28:11.325Z,83.38
2022-09-02T13:31:02.129Z,83.42
2022-09-02T13:33:29.472Z,83.46
2022-09-02T13:35:58.690Z,83.65
2022-09-02T13:38:28.380Z,83.61
2022-09-02T13:40:55.986Z,83.81
2022-09-02T13:43:26.602Z,84.18
2022-09-02T13:45:57.450Z,84.44
2022-09-02T13:48:26.913Z,84.56
2022-09-02T13:50:57.576Z,84.86
2022-09-02T13:53:45.504Z,84.69
2022-09-02T13:56:08.883Z,84.62
2022-09-02T13:58:39.996Z,84.65
2022-09-02T14:01:23.761Z,84.85
2022-09-02T14:03:53.460Z,84.72
2022-09-02T14:06:25.440Z,84.57
2022-09-02T14:08:56.106Z,84.55
2022-09-02T14:11:23.632Z,84.82
2022-09-02T14:13:51.819Z,85.33
2022-09-02T14:16:29.095Z,85.25
2022-09-02T14:19:13.453Z,85.05
2022-09-02T14:21:56.202Z,85.15
2022-09-02T14:24:27.349Z,84.63
2022-09-02T14:26:56.608Z,84.64
2022-09-02T14:29:24.901Z,84.22
2022-09-02T14:32:15.737Z,84.18
2022-09-02T14:34:46.120Z,85.00
2022-09-02T14:37:26.259Z,84.99
2022-09-02T14:40:05.489Z,85.13
2022-09-02T14:42:47.169Z,85.13
2022-09-02T14:45:30.161Z,85.56
2022-09-02T14:48:01.215Z,85.57
2022-09-02T14:50:31.992Z,85.50
2022-09-02T14:53:03.210Z,85.79
2022-09-02T14:55:43.924Z,85.83
2022-09-02T14:58:12.105Z,85.99
2022-09-02T15:00:39.679Z,85.87
2022-09-02T15:03:07.532Z,85.91
2022-09-02T15:05:34.936Z,85.85
2022-09-02T15:08:03.173Z,86.12
2022-09-02T15:10:38.213Z,86.02
2022-09-02T15:13:08.219Z,86.10
2022-09-02T15:15:36.843Z,86.25
2022-09-02T15:18:09.176Z,86.16
2022-09-02T15:20:37.499Z,86.14
2022-09-02T15:23:05.571Z,86.82
2022-09-02T15:25:33.662Z,86.37
2022-09-02T15:28:01.704Z,86.23
2022-09-02T15:30:33.190Z,86.18
2022-09-02T15:33:16.708Z,86.37
2022-09-02T15:35:40.623Z,86.44
2022-09-02T15:38:08.510Z,86.43
2022-09-02T15:40:36.392Z,86.30
2022-09-02T15:43:03.945Z,86.46
2022-09-02T15:45:31.341Z,86.44
2022-09-02T15:47:58.966Z,86.42
2022-09-02T15:50:28.233Z,86.87
2022-09-02T15:52:55.444Z,86.64
2022-09-02T15:55:29.157Z,86.49
2022-09-02T15:57:51.809Z,86.62
2022-09-02T16:00:19.251Z,86.79
2022-09-02T16:02:47.076Z,86.83
2022-09-02T16:05:15.094Z,86.85
2022-09-02T16:07:43.570Z,86.93
2022-09-02T16:10:12.000Z,87.01
2022-09-02T16:12:40.369Z,87.17
2022-09-02T16:15:08.960Z,87.00
2022-09-02T16:17:36.643Z,87.00
2022-09-02T16:20:06.179Z,87.02
2022-09-02T16:22:33.798Z,87.07
2022-09-02T16:25:02.562Z,87.21
2022-09-02T16:27:48.614Z,87.11
2022-09-02T16:30:16.419Z,87.15
2022-09-02T16:32:45.919Z,87.19
2022-09-02T16:35:13.668Z,87.18
2022-09-02T16:37:41.860Z,87.39
2022-09-02T16:40:11.045Z,87.43
2022-09-02T16:42:38.709Z,87.40
2022-09-02T16:45:06.913Z,87.27
2022-09-02T16:47:34.628Z,87.44
2022-09-02T16:50:02.347Z,87.42
2022-09-02T16:52:32.023Z,87.29
2022-09-02T16:54:59.838Z,87.38
2022-09-02T16:57:27.600Z,87.49
2022-09-02T16:59:55.961Z,87.54
2022-09-02T17:02:23.873Z,87.52
2022-09-02T17:04:51.530Z,87.55
2022-09-02T17:07:21.124Z,87.66
2022-09-02T17:09:48.664Z,87.48
2022-09-02T17:12:16.329Z,87.54
2022-09-02T17:14:43.947Z,87.73
2022-09-02T17:17:13.213Z,87.68
2022-09-02T17:19:40.663Z,87.62
2022-09-02T17:22:08.300Z,87.67
2022-09-02T17:24:35.563Z,87.58
2022-09-02T17:27:03.189Z,87.74
2022-09-02T17:32:00.371Z,87.60
2022-09-02T17:34:28.673Z,87.79
2022-09-02T17:36:56.296Z,88.11
2022-09-02T17:39:24.381Z,88.07
2022-09-02T17:41:55.256Z,87.95
2022-09-02T17:44:34.977Z,88.28
2022-09-02T17:47:07.781Z,88.16
2022-09-02T17:49:36.682Z,88.38
2022-09-02T17:52:07.041Z,88.14
2022-09-02T17:54:36.002Z,88.23
2022-09-02T17:57:10.138Z,88.36
2022-09-02T18:00:06.352Z,88.49
2022-09-02T18:02:55.212Z,88.47
2022-09-02T18:05:44.204Z,88.65
2022-09-02T18:08:31.634Z,88.68
2022-09-02T18:11:02.405Z,88.61
2022-09-02T18:13:39.701Z,88.61
2022-09-02T18:16:22.097Z,88.72
2022-09-02T18:19:02.234Z,88.78
2022-09-02T18:21:42.896Z,88.75
2022-09-02T18:24:20.120Z,88.92
2022-09-02T18:27:13.989Z,88.81
2022-09-02T18:29:52.274Z,89.19
2022-09-02T18:32:29.363Z,88.99
2022-09-02T18:35:25.204Z,88.95
2022-09-02T18:38:20.322Z,89.13
2022-09-02T18:41:25.403Z,89.02
2022-09-02T18:44:17.616Z,89.01
2022-09-02T18:47:01.316Z,89.03
2022-09-02T18:49:31.606Z,89.04
2022-09-02T18:52:00.289Z,89.10
2022-09-02T18:54:31.225Z,89.00
2022-09-02T18:57:00.561Z,89.25
2022-09-02T18:59:34.836Z,89.28
2022-09-02T19:02:20.681Z,89.16
2022-09-02T19:04:48.439Z,89.42
2022-09-02T19:07:37.094Z,89.20
2022-09-02T19:10:05.700Z,89.23
2022-09-02T19:12:35.839Z,89.26
2022-09-02T19:15:09.263Z,89.41
2022-09-02T19:17:37.667Z,89.24
2022-09-02T19:20:09.350Z,89.21
2022-09-02T19:22:39.696Z,89.27
2022-09-02T19:25:13.626Z,89.33
2022-09-02T19:27:43.737Z,89.23
2022-09-02T19:30:17.185Z,89.22
2022-09-02T19:32:47.639Z,89.24
2022-09-02T19:35:17.716Z,89.24
2022-09-02T19:37:50.726Z,89.10
2022-09-02T19:40:30.474Z,89.28
2022-09-02T19:43:01.723Z,89.39
2022-09-02T19:45:31.441Z,89.43
2022-09-02T19:48:07.856Z,89.48
2022-09-02T19:50:28.130Z,89.50
2022-09-02T19:52:55.766Z,89.67
2022-09-02T19:55:23.531Z,89.46
2022-09-02T19:57:52.654Z,89.49
2022-09-02T20:00:20.293Z,89.45
2022-09-02T20:02:49.417Z,89.43
2022-09-02T20:05:16.990Z,89.61
2022-09-02T20:07:44.601Z,89.48
2022-09-02T20:10:12.003Z,89.61
2022-09-02T20:12:39.813Z,89.76
2022-09-02T20:15:07.662Z,89.70
2022-09-02T20:17:35.563Z,89.72
2022-09-02T20:20:09.479Z,89.75
2022-09-02T20:22:36.932Z,89.67
2022-09-02T20:25:04.838Z,89.66
2022-09-02T20:27:51.035Z,89.69
2022-09-02T20:30:19.592Z,89.60
2022-09-02T20:32:55.613Z,89.52
2022-09-02T20:36:00.559Z,89.50
2022-09-02T20:38:48.134Z,89.47
2022-09-02T20:41:31.283Z,89.33
2022-09-02T20:44:36.215Z,89.27
2022-09-02T20:47:28.590Z,89.44
2022-09-02T20:50:05.739Z,89.27
2022-09-02T20:52:37.895Z,89.31
2022-09-02T20:55:09.191Z,89.24
2022-09-02T20:58:16.604Z,89.33
2022-09-02T21:00:53.737Z,89.42
2022-09-02T21:03:24.244Z,89.34
2022-09-02T21:06:00.689Z,89.11
2022-09-02T21:08:34.925Z,89.20
2022-09-02T21:11:05.958Z,89.29
2022-09-02T21:13:36.981Z,89.25
2022-09-02T21:16:10.901Z,89.44
2022-09-02T21:18:41.979Z,89.44
2022-09-02T21:21:25.207Z,89.46
2022-09-02T21:24:05.074Z,89.47
2022-09-02T21:26:38.875Z,89.50
2022-09-02T21:29:21.784Z,89.48
2022-09-02T21:31:55.778Z,89.53
2022-09-02T21:34:26.961Z,89.86
2022-09-02T21:36:55.450Z,89.79
2022-09-02T21:39:25.366Z,89.75
2022-09-02T21:41:59.514Z,89.72
2022-09-02T21:44:36.173Z,89.97
2022-09-02T21:47:25.147Z,90.00
2022-09-02T21:50:19.958Z,90.01
2022-09-02T21:52:56.627Z,89.97
2022-09-02T21:55:39.514Z,90.00
2022-09-02T21:58:39.499Z,90.05
2022-09-02T22:01:18.642Z,90.11
2022-09-02T22:03:49.698Z,89.95
2022-09-02T22:06:37.291Z,90.06
2022-09-02T22:09:08.385Z,90.14
2022-09-02T22:11:53.380Z,90.10
2022-09-02T22:14:39.808Z,90.08
2022-09-02T22:17:12.109Z,90.17
2022-09-02T22:19:41.235Z,90.03
2022-09-02T22:22:14.396Z,89.96
2022-09-02T22:24:41.637Z,89.93
2022-09-02T22:27:11.241Z,89.86
2022-09-02T22:29:50.916Z,89.98
2022-09-02T22:32:28.036Z,89.85
2022-09-02T22:35:08.888Z,89.91
2022-09-02T22:38:10.426Z,90.01
2022-09-02T22:40:49.656Z,90.02
2022-09-02T22:43:19.759Z,90.05
2022-09-02T22:46:14.749Z,89.98
2022-09-02T22:49:10.241Z,89.90
2022-09-02T22:52:08.669Z,90.05
2022-09-02T22:54:36.161Z,90.24
2022-09-02T22:57:21.081Z,90.13
2022-09-02T23:00:04.632Z,90.52
2022-09-02T23:02:38.447Z,90.14
2022-09-02T23:05:17.218Z,90.19
2022-09-02T23:07:44.498Z,90.18
2022-09-02T23:10:15.617Z,90.24
2022-09-02T23:12:59.944Z,90.20
2022-09-02T23:15:32.682Z,90.09
2022-09-02T23:18:26.876Z,90.19
2022-09-02T23:21:00.502Z,90.15
2022-09-02T23:23:49.134Z,90.16
2022-09-02T23:26:35.368Z,90.27
2022-09-02T23:29:17.569Z,90.22
2022-09-02T23:32:22.875Z,90.35
2022-09-02T23:34:53.805Z,90.19
2022-09-02T23:37:59.957Z,90.26
2022-09-02T23:40:30.854Z,90.16
2022-09-02T23:42:58.757Z,90.29
2022-09-02T23:45:28.794Z,90.35
2022-09-02T23:48:05.546Z,90.36
2022-09-02T23:50:44.366Z,90.42
2022-09-02T23:53:16.947Z,90.50
2022-09-02T23:56:06.010Z,90.62
2022-09-02T23:59:07.457Z,90.77
